الصفحة الرئيسية
METAR-TAF:

METAR-TAF

مطار :

فونافوتي, توفالو

دائرة عرض: 08-31S, خط طول: 179-13E, ارتفاع: 1 متر

مراقبة الطقس الحالي

تاريخ ووقت الإصدار 27 دقيقة قبل الساعة 05:00UTC
ريح 5 عقدة من الشرق
درجة الحرارة 32°درجة مئوية
الرطوبة 75%
ضغط 1009 hPa
الرؤية 10 كم أو أكثر
غيوم قليلة على ارتفاع 1800 قدم, مزن ركامية عمودية.
غيوم مفككة على ارتفاع 30000 قدم

METAR: NGFU 250500Z 09005KT 9999 FEW018TCU BKN300 32/27 Q1009

زمن: 17:27 (05:27 UTC)

توقعات

تاريخ ووقت الإصدار 6ساعات و 20 دقيقة قبل الساعة 23:07UTC
التوقعات صالحة من25 الساعة 00 UTC إلى 25 الساعة 24 UTC
ريح 5 عقدة من الشرق
الرؤية 10 كم أو أكثر
غيوم قليلة على ارتفاع 1800 قدم
غيوم متفرقة على ارتفاع 2000 قدم

TAF: NGFU 242307Z 2500/2524 08005KT 9999 FEW018 SCT020

أرصاد الطقس والتوقعات من أكثر من 4000 مطار (تقارير الطقس للمطار METAR والتنبؤ بالطقس بالمطارTAF).

المحطات المتاحة هي النقط الصفراء والحمراء على الخريطة.

حرك المؤشر فوق النقطة لمعرفة اسم المحطة.

ثم انقر لمعرفة أرصاد وتوقعات الطقس.

لتغيير الخارطة: اضغط على الأزرار الخضراء مع رمز الصليب الأسود للتكبير. على الزر الأخضر مع شرطة للتصغير، أو على الأسهم الخضراء للخرائط المجاورة.


METAR-TAF: